Time;durP1;ratioP1;P1;durP2;ratioP2;P2;SDS_P1;SDS_P2;PMS_P1;PMS_P2;Temp;Humidity;BMP_temperature;BMP_pressure;BME280_temperature;BME280_humidity;BME280_pressure;Samples;Min_cycle;Max_cycle;Signal;HPM_P1;HPM_P2
2023/07/05 00:01:53;;;;;;;29.35;5.38;;;;;;;;;;6122250;23;20081;-91
2023/07/05 00:04:34;;;;;;;23.08;5.13;;;;;;;;;;6124066;23;20022;-90
2023/07/05 00:07:08;;;;;;;27.83;4.10;;;;;;;;;;6122983;23;20084;-91
2023/07/05 00:09:41;;;;;;;19.38;4.30;;;;;;;;;;6122713;23;20022;-91
2023/07/05 00:12:08;;;;;;;32.25;4.82;;;;;;;;;;6123215;23;20022;-91
2023/07/05 00:14:36;;;;;;;20.60;4.50;;;;;;;;;;6121826;23;20080;-91
2023/07/05 00:17:10;;;;;;;26.85;5.32;;;;;;;;;;6122266;23;20026;-91
2023/07/05 00:19:37;;;;;;;29.60;5.55;;;;;;;;;;6122143;23;20093;-92
2023/07/05 00:22:04;;;;;;;19.88;4.45;;;;;;;;;;6123587;23;20026;-91
2023/07/05 00:24:38;;;;;;;19.70;4.68;;;;;;;;;;6123488;23;20496;-90
2023/07/05 00:27:12;;;;;;;23.13;4.55;;;;;;;;;;6124121;23;20078;-91
2023/07/05 00:29:46;;;;;;;22.85;4.47;;;;;;;;;;6124252;23;20026;-91
2023/07/05 00:32:13;;;;;;;24.92;4.68;;;;;;;;;;6123520;23;20073;-91
2023/07/05 00:34:41;;;;;;;23.73;4.50;;;;;;;;;;6123299;23;20061;-91
2023/07/05 00:37:14;;;;;;;23.67;5.32;;;;;;;;;;6124141;23;20467;-92
2023/07/05 00:39:41;;;;;;;23.77;5.05;;;;;;;;;;6123390;23;20387;-91
2023/07/05 00:42:15;;;;;;;37.90;5.75;;;;;;;;;;6123997;23;20069;-92
2023/07/05 00:44:56;;;;;;;20.15;4.35;;;;;;;;;;6123602;23;20392;-91
2023/07/05 00:47:33;;;;;;;32.90;5.15;;;;;;;;;;6124861;23;20034;-91
2023/07/05 00:50:04;;;;;;;19.15;5.05;;;;;;;;;;6124082;23;20026;-91
2023/07/05 00:52:38;;;;;;;28.52;5.40;;;;;;;;;;6124378;23;20026;-91
2023/07/05 00:55:06;;;;;;;19.52;4.40;;;;;;;;;;6123073;23;20077;-91
2023/07/05 00:57:33;;;;;;;;;;;;;;;;;;6124749;23;20077;-91
2023/07/05 01:00:08;;;;;;;27.00;5.07;;;;;;;;;;6170050;23;20294;-91
2023/07/05 01:02:39;;;;;;;29.35;5.72;;;;;;;;;;6123626;23;20021;-91
2023/07/05 01:05:19;;;;;;;27.55;5.88;;;;;;;;;;6123427;23;20022;-91
2023/07/05 01:07:47;;;;;;;21.75;5.13;;;;;;;;;;6125781;23;20084;-91
2023/07/05 01:10:23;;;;;;;31.05;5.68;;;;;;;;;;6122404;23;20025;-91
2023/07/05 01:13:00;;;;;;;26.30;5.53;;;;;;;;;;6123351;23;20017;-91
2023/07/05 01:15:37;;;;;;;30.65;5.93;;;;;;;;;;6128317;23;20026;-91
2023/07/05 01:18:04;;;;;;;28.05;5.32;;;;;;;;;;6124490;23;20025;-91
2023/07/05 01:20:39;;;;;;;25.83;5.00;;;;;;;;;;6128924;23;20362;-91
2023/07/05 01:23:19;;;;;;;32.25;6.28;;;;;;;;;;6123677;23;20097;-91
2023/07/05 01:26:12;;;;;;;28.67;6.15;;;;;;;;;;6122987;23;20022;-91
2023/07/05 01:28:57;;;;;;;26.58;5.60;;;;;;;;;;6124436;23;20080;-92
2023/07/05 01:32:09;;;;;;;33.17;6.25;;;;;;;;;;6122825;23;20332;-91
2023/07/05 01:34:38;;;;;;;32.97;6.22;;;;;;;;;;6092545;23;20018;-90
2023/07/05 01:37:32;;;;;;;28.75;5.80;;;;;;;;;;6092292;23;20025;-91
2023/07/05 01:40:00;;;;;;;33.92;6.43;;;;;;;;;;6113717;23;20018;-91
2023/07/05 01:42:34;;;;;;;31.00;6.68;;;;;;;;;;6122860;23;20026;-92
2023/07/05 01:45:02;;;;;;;;;;;;;;;;;;6123929;23;20018;-90
2023/07/05 01:47:34;;;;;;;29.90;6.57;;;;;;;;;;6173072;23;19927;-91
2023/07/05 01:50:15;;;;;;;35.22;6.03;;;;;;;;;;6124091;23;20030;-91
2023/07/05 01:52:46;;;;;;;29.63;6.20;;;;;;;;;;6127014;23;20071;-91
2023/07/05 01:55:55;;;;;;;29.52;6.38;;;;;;;;;;6123324;23;20022;-92
2023/07/05 01:58:30;;;;;;;25.02;5.60;;;;;;;;;;6093006;23;20038;-91
2023/07/05 02:00:58;;;;;;;40.17;6.53;;;;;;;;;;6119010;23;20029;-90
2023/07/05 02:03:26;;;;;;;24.98;6.07;;;;;;;;;;6123918;23;20014;-90
2023/07/05 02:06:08;;;;;;;27.23;5.72;;;;;;;;;;6124660;23;20026;-91
2023/07/05 02:08:43;;;;;;;27.35;6.18;;;;;;;;;;6124335;23;20077;-91
2023/07/05 02:11:10;;;;;;;30.17;5.78;;;;;;;;;;6123845;23;20026;-91
2023/07/05 02:13:37;;;;;;;30.92;6.32;;;;;;;;;;6123862;23;20029;-90
2023/07/05 02:16:11;;;;;;;42.17;6.82;;;;;;;;;;6123434;23;20030;-91
2023/07/05 02:18:38;;;;;;;38.08;7.43;;;;;;;;;;6124523;23;20391;-91
2023/07/05 02:21:12;;;;;;;32.25;5.75;;;;;;;;;;6124111;23;20100;-90
2023/07/05 02:23:46;;;;;;;25.27;5.45;;;;;;;;;;6121980;23;20069;-91
2023/07/05 02:26:20;;;;;;;32.55;7.03;;;;;;;;;;6124014;23;20025;-91
2023/07/05 02:28:47;;;;;;;33.92;6.72;;;;;;;;;;6123565;23;20017;-91
2023/07/05 02:31:21;;;;;;;26.70;5.38;;;;;;;;;;6123655;23;20541;-91
2023/07/05 02:33:48;;;;;;;34.72;6.43;;;;;;;;;;6124863;23;20030;-91
2023/07/05 02:36:17;;;;;;;25.73;6.30;;;;;;;;;;6122983;23;20017;-91
2023/07/05 02:38:52;;;;;;;24.48;5.60;;;;;;;;;;6123149;23;20025;-91
2023/07/05 02:41:20;;;;;;;24.77;5.60;;;;;;;;;;6124528;23;20029;-91
2023/07/05 02:43:54;;;;;;;28.95;6.22;;;;;;;;;;6122804;23;20045;-91
2023/07/05 02:46:25;;;;;;;37.80;5.22;;;;;;;;;;6123011;23;20022;-92
2023/07/05 02:48:55;;;;;;;32.33;6.32;;;;;;;;;;6123124;23;20510;-90
2023/07/05 02:51:32;;;;;;;29.35;6.32;;;;;;;;;;6122864;23;20018;-90
2023/07/05 02:53:59;;;;;;;37.17;6.38;;;;;;;;;;6122475;23;20022;-90
2023/07/05 02:56:33;;;;;;;35.25;6.45;;;;;;;;;;6123586;23;20022;-92
2023/07/05 02:59:01;;;;;;;24.60;5.65;;;;;;;;;;6122379;23;20123;-91
2023/07/05 03:01:28;;;;;;;23.38;5.03;;;;;;;;;;6122742;23;20022;-91
2023/07/05 03:04:16;;;;;;;26.70;4.65;;;;;;;;;;6126311;23;20117;-90
2023/07/05 03:06:50;;;;;;;18.17;4.37;;;;;;;;;;6158775;23;20028;-91
2023/07/05 03:09:24;;;;;;;29.00;5.00;;;;;;;;;;6158281;23;20020;-91
2023/07/05 03:11:52;;;;;;;25.45;5.38;;;;;;;;;;6157698;23;20131;-91
2023/07/05 03:14:19;;;;;;;24.40;4.75;;;;;;;;;;6156208;23;20087;-91
2023/07/05 03:16:53;;;;;;;26.70;5.13;;;;;;;;;;6158738;23;20013;-91
2023/07/05 03:19:20;;;;;;;24.70;4.70;;;;;;;;;;6157119;23;20024;-91
2023/07/05 03:21:54;;;;;;;22.73;4.43;;;;;;;;;;6181963;23;20020;-92
2023/07/05 03:24:21;;;;;;;28.08;4.20;;;;;;;;;;6156670;23;20406;-92
2023/07/05 03:26:54;;;;;;;19.98;3.88;;;;;;;;;;6157585;23;20029;-90
2023/07/05 03:29:28;;;;;;;22.42;4.05;;;;;;;;;;6158659;23;20017;-91
2023/07/05 03:31:58;;;;;;;15.48;3.90;;;;;;;;;;6157713;23;20545;-91
2023/07/05 03:34:32;;;;;;;35.10;4.63;;;;;;;;;;6181321;23;20028;-91
2023/07/05 03:37:00;;;;;;;12.00;3.60;;;;;;;;;;6156930;23;20075;-92
2023/07/05 03:39:27;;;;;;;18.45;4.20;;;;;;;;;;6157086;23;20017;-90
2023/07/05 03:42:02;;;;;;;21.92;4.95;;;;;;;;;;6158219;23;20677;-91
2023/07/05 03:44:29;;;;;;;18.88;4.20;;;;;;;;;;6182042;23;20017;-91
2023/07/05 03:47:04;;;;;;;17.85;3.65;;;;;;;;;;6157641;23;20079;-92
2023/07/05 03:49:34;;;;;;;20.60;4.43;;;;;;;;;;6156794;23;20076;-89
2023/07/05 03:52:07;;;;;;;15.70;4.07;;;;;;;;;;6156901;23;20021;-90
2023/07/05 03:54:34;;;;;;;17.02;3.72;;;;;;;;;;6157446;23;20079;-91
2023/07/05 03:57:02;;;;;;;22.25;3.63;;;;;;;;;;6158089;23;20029;-90
2023/07/05 03:59:36;;;;;;;13.80;3.13;;;;;;;;;;6159238;23;20024;-91
2023/07/05 04:02:04;;;;;;;22.05;3.83;;;;;;;;;;6158335;23;20025;-91
2023/07/05 04:04:50;;;;;;;13.55;3.10;;;;;;;;;;6145367;23;20026;-90
2023/07/05 04:07:26;;;;;;;11.43;2.90;;;;;;;;;;6123549;23;20339;-92
2023/07/05 04:09:59;;;;;;;13.27;3.30;;;;;;;;;;6123735;23;20026;-91
2023/07/05 04:12:33;;;;;;;17.83;3.30;;;;;;;;;;6123486;23;20018;-91
2023/07/05 04:15:08;;;;;;;16.48;3.15;;;;;;;;;;6123514;23;20021;-92
2023/07/05 04:17:35;;;;;;;17.50;2.80;;;;;;;;;;6124173;23;20014;-92
2023/07/05 04:20:03;;;;;;;15.93;2.63;;;;;;;;;;6124048;23;20025;-92
2023/07/05 04:22:38;;;;;;;14.55;3.10;;;;;;;;;;6124886;23;20084;-92
2023/07/05 04:25:06;;;;;;;11.13;2.80;;;;;;;;;;6123275;23;20100;-91
2023/07/05 04:27:34;;;;;;;19.23;2.90;;;;;;;;;;6123069;23;20036;-92
2023/07/05 04:30:10;;;;;;;20.38;3.33;;;;;;;;;;6124401;23;20021;-92
2023/07/05 04:32:37;;;;;;;11.98;3.40;;;;;;;;;;6124899;23;20030;-92
2023/07/05 04:35:05;;;;;;;20.92;2.95;;;;;;;;;;6122635;23;20026;-92
2023/07/05 04:37:39;;;;;;;11.27;2.80;;;;;;;;;;6124076;23;20025;-93
2023/07/05 04:40:07;;;;;;;12.73;3.00;;;;;;;;;;6123571;23;20014;-92
2023/07/05 04:42:40;;;;;;;15.40;2.70;;;;;;;;;;6123391;23;20076;-92
2023/07/05 04:45:08;;;;;;;10.70;2.75;;;;;;;;;;6122173;23;20022;-92
2023/07/05 04:47:42;;;;;;;15.43;3.15;;;;;;;;;;6122637;23;20475;-91
2023/07/05 04:50:09;;;;;;;15.18;2.72;;;;;;;;;;6123217;23;20014;-91
2023/07/05 04:52:37;;;;;;;20.27;3.28;;;;;;;;;;6123313;23;20078;-92
2023/07/05 04:55:10;;;;;;;11.80;2.95;;;;;;;;;;6123322;23;20397;-92
2023/07/05 04:57:42;;;;;;;13.10;2.75;;;;;;;;;;6122807;23;20093;-91
2023/07/05 05:00:12;;;;;;;16.35;2.95;;;;;;;;;;6123580;23;20089;-91
2023/07/05 05:02:46;;;;;;;15.07;2.65;;;;;;;;;;6123597;23;20046;-93
2023/07/05 05:05:26;;;;;;;15.07;2.95;;;;;;;;;;6123865;23;20025;-90
2023/07/05 05:08:00;;;;;;;12.15;3.15;;;;;;;;;;6123847;23;20014;-92
2023/07/05 05:10:28;;;;;;;20.63;3.30;;;;;;;;;;6122965;23;20032;-91
2023/07/05 05:12:55;;;;;;;15.77;3.28;;;;;;;;;;6123029;23;20388;-91
2023/07/05 05:15:28;;;;;;;21.23;3.05;;;;;;;;;;6123377;23;20022;-91
2023/07/05 05:17:57;;;;;;;11.57;2.53;;;;;;;;;;6123006;23;20022;-90
2023/07/05 05:20:24;;;;;;;15.85;3.70;;;;;;;;;;6122975;23;20041;-92
2023/07/05 05:22:58;;;;;;;14.20;2.83;;;;;;;;;;6122384;23;20281;-93
2023/07/05 05:25:26;;;;;;;9.38;2.15;;;;;;;;;;6123329;23;20022;-91
2023/07/05 05:28:00;;;;;;;15.52;2.78;;;;;;;;;;6123262;23;20092;-91
2023/07/05 05:30:31;;;;;;;13.43;2.72;;;;;;;;;;6123357;23;20022;-92
2023/07/05 05:32:58;;;;;;;15.07;3.03;;;;;;;;;;6122695;23;20025;-90
2023/07/05 05:35:34;;;;;;;13.75;3.17;;;;;;;;;;6123327;23;20030;-91
2023/07/05 05:38:02;;;;;;;12.95;3.47;;;;;;;;;;6125360;23;20018;-91
2023/07/05 05:40:30;;;;;;;13.95;3.10;;;;;;;;;;6123049;23;20085;-92
2023/07/05 05:43:03;;;;;;;15.23;2.72;;;;;;;;;;6123350;23;20029;-92
2023/07/05 05:45:30;;;;;;;19.88;3.22;;;;;;;;;;6123118;23;20022;-92
2023/07/05 05:48:05;;;;;;;13.75;2.65;;;;;;;;;;6123973;23;20025;-92
2023/07/05 05:50:32;;;;;;;17.67;2.70;;;;;;;;;;6123495;23;20025;-92
2023/07/05 05:52:59;;;;;;;13.93;2.47;;;;;;;;;;6123356;23;20025;-91
2023/07/05 05:55:33;;;;;;;22.27;2.85;;;;;;;;;;6123480;23;20092;-93
2023/07/05 05:58:00;;;;;;;12.82;2.75;;;;;;;;;;6122534;23;20021;-92
2023/07/05 06:00:36;;;;;;;15.85;2.50;;;;;;;;;;6123749;23;20029;-93
2023/07/05 06:03:03;;;;;;;15.60;2.40;;;;;;;;;;6123549;23;20030;-91
2023/07/05 06:05:32;;;;;;;13.98;2.78;;;;;;;;;;6123352;23;20022;-92
2023/07/05 06:08:06;;;;;;;11.20;2.50;;;;;;;;;;6123741;23;20021;-92
2023/07/05 06:10:34;;;;;;;13.23;3.05;;;;;;;;;;6124613;23;20026;-91
2023/07/05 06:13:09;;;;;;;21.95;3.17;;;;;;;;;;6123338;23;20367;-91
2023/07/05 06:15:36;;;;;;;9.10;2.40;;;;;;;;;;6122926;23;20082;-92
2023/07/05 06:18:03;;;;;;;13.15;2.92;;;;;;;;;;6121570;23;20018;-91
2023/07/05 06:20:37;;;;;;;10.05;2.83;;;;;;;;;;6123839;23;20439;-91
2023/07/05 06:23:05;;;;;;;7.13;2.30;;;;;;;;;;6123293;23;20060;-93
2023/07/05 06:25:34;;;;;;;12.65;2.97;;;;;;;;;;6122789;23;20053;-92
2023/07/05 06:28:07;;;;;;;8.05;2.00;;;;;;;;;;6123150;23;20081;-92
2023/07/05 06:30:35;;;;;;;6.25;2.05;;;;;;;;;;6123482;23;20026;-92
2023/07/05 06:33:08;;;;;;;14.75;2.50;;;;;;;;;;6123263;23;20024;-93
2023/07/05 06:35:36;;;;;;;9.73;2.08;;;;;;;;;;6122807;23;20030;-91
2023/07/05 06:38:03;;;;;;;11.95;2.75;;;;;;;;;;6124391;23;20014;-93
2023/07/05 06:40:36;;;;;;;10.55;2.40;;;;;;;;;;6124151;23;20022;-92
2023/07/05 06:43:04;;;;;;;20.77;2.53;;;;;;;;;;6123100;23;20026;-92
2023/07/05 06:45:35;;;;;;;10.45;2.67;;;;;;;;;;6123517;23;20026;-92
2023/07/05 06:48:08;;;;;;;11.27;2.95;;;;;;;;;;6122615;23;20510;-92
2023/07/05 06:50:36;;;;;;;15.85;2.50;;;;;;;;;;6124351;23;20092;-92
2023/07/05 06:53:12;;;;;;;10.65;2.38;;;;;;;;;;6122835;23;20022;-91
2023/07/05 06:56:00;;;;;;;13.00;2.78;;;;;;;;;;6123088;23;20060;-91
2023/07/05 06:58:33;;;;;;;11.07;2.63;;;;;;;;;;6123566;23;20080;-91
2023/07/05 07:01:01;;;;;;;6.25;2.28;;;;;;;;;;6122387;23;20447;-91
2023/07/05 07:03:28;;;;;;;12.07;2.55;;;;;;;;;;6124564;23;20078;-91
2023/07/05 07:06:14;;;;;;;9.35;2.65;;;;;;;;;;6122875;23;20034;-92
2023/07/05 07:09:01;;;;;;;8.93;2.85;;;;;;;;;;6122864;23;20847;-93
2023/07/05 07:11:35;;;;;;;14.57;2.08;;;;;;;;;;6123112;23;20021;-92
2023/07/05 07:14:03;;;;;;;11.65;2.70;;;;;;;;;;6122211;23;20411;-92
2023/07/05 07:16:36;;;;;;;10.30;2.65;;;;;;;;;;6122361;23;20022;-92
2023/07/05 07:19:04;;;;;;;9.60;2.30;;;;;;;;;;6122708;23;20049;-92
2023/07/05 07:21:31;;;;;;;9.02;2.70;;;;;;;;;;6123027;23;20021;-92
2023/07/05 07:24:06;;;;;;;9.65;2.00;;;;;;;;;;6123395;23;20467;-92
2023/07/05 07:26:33;;;;;;;11.73;2.15;;;;;;;;;;6122958;23;20056;-89
2023/07/05 07:29:08;;;;;;;7.70;2.47;;;;;;;;;;6122764;23;20081;-91
2023/07/05 07:31:35;;;;;;;7.25;1.77;;;;;;;;;;6121868;23;20073;-92
2023/07/05 07:34:10;;;;;;;11.93;2.13;;;;;;;;;;6122560;23;20080;-92
2023/07/05 07:36:37;;;;;;;4.38;1.90;;;;;;;;;;6122217;23;20022;-92
2023/07/05 07:39:11;;;;;;;10.85;2.40;;;;;;;;;;6122246;23;20018;-92
2023/07/05 07:41:39;;;;;;;12.23;2.38;;;;;;;;;;6121473;23;20415;-92
2023/07/05 07:44:07;;;;;;;5.50;2.17;;;;;;;;;;6122473;23;20045;-91
2023/07/05 07:46:41;;;;;;;7.22;2.47;;;;;;;;;;6124024;23;20034;-92
2023/07/05 07:49:09;;;;;;;8.60;1.85;;;;;;;;;;6122984;23;20026;-93
2023/07/05 07:51:44;;;;;;;6.28;1.95;;;;;;;;;;6123189;23;20030;-92
2023/07/05 07:54:16;;;;;;;7.30;2.13;;;;;;;;;;6122110;23;20026;-92
2023/07/05 07:56:50;;;;;;;9.45;2.08;;;;;;;;;;6123159;23;20116;-91
2023/07/05 07:59:17;;;;;;;9.43;2.75;;;;;;;;;;6122630;23;20022;-91
2023/07/05 08:01:45;;;;;;;9.48;2.00;;;;;;;;;;6121691;23;20077;-91
2023/07/05 08:04:19;;;;;;;9.32;1.85;;;;;;;;;;6123117;23;20543;-92
2023/07/05 08:06:53;;;;;;;5.97;2.30;;;;;;;;;;6123574;23;20025;-93
2023/07/05 08:09:27;;;;;;;7.88;2.15;;;;;;;;;;6123352;23;20036;-92
2023/07/05 08:11:55;;;;;;;9.25;1.90;;;;;;;;;;6121939;23;20026;-92
2023/07/05 08:14:29;;;;;;;10.07;2.13;;;;;;;;;;6122515;23;20025;-93
2023/07/05 08:16:57;;;;;;;;;;;;;;;;;;6122970;23;20018;-92
2023/07/05 08:19:31;;;;;;;8.65;2.25;;;;;;;;;;6169117;23;19921;-92
2023/07/05 08:21:58;;;;;;;11.52;2.45;;;;;;;;;;6121989;23;20018;-92
2023/07/05 08:24:25;;;;;;;6.95;1.98;;;;;;;;;;6123835;23;20022;-92
2023/07/05 08:27:00;;;;;;;7.93;2.28;;;;;;;;;;6122357;23;20037;-93
2023/07/05 08:29:27;;;;;;;9.60;2.10;;;;;;;;;;6123432;23;20026;-92
2023/07/05 08:31:55;;;;;;;5.28;2.30;;;;;;;;;;6122026;23;20084;-93
2023/07/05 08:34:30;;;;;;;10.85;2.42;;;;;;;;;;6122579;23;20029;-92
2023/07/05 08:36:57;;;;;;;7.78;1.90;;;;;;;;;;6122874;23;20028;-93
2023/07/05 08:39:25;;;;;;;8.88;2.20;;;;;;;;;;6123287;23;20464;-91
2023/07/05 08:42:10;;;;;;;9.05;2.28;;;;;;;;;;6122670;23;20084;-93
2023/07/05 08:44:37;;;;;;;;;;;;;;;;;;6125157;23;20097;-92
2023/07/05 08:47:22;;;;;;;8.65;2.53;;;;;;;;;;6170273;23;19948;-92
2023/07/05 08:49:55;;;;;;;12.93;3.00;;;;;;;;;;6124596;23;20044;-93
2023/07/05 08:52:45;;;;;;;12.23;1.95;;;;;;;;;;6124700;23;20045;-93
2023/07/05 08:55:15;;;;;;;9.63;2.45;;;;;;;;;;6123708;23;20636;-93
2023/07/05 08:57:56;;;;;;;10.98;2.25;;;;;;;;;;6123969;23;20076;-93
2023/07/05 09:00:29;;;;;;;9.77;2.50;;;;;;;;;;6124070;23;20028;-92
2023/07/05 09:03:05;;;;;;;8.13;2.15;;;;;;;;;;6124796;23;20020;-93
2023/07/05 09:05:46;;;;;;;11.65;2.40;;;;;;;;;;6125379;23;20026;-92
2023/07/05 09:08:42;;;;;;;7.55;2.22;;;;;;;;;;6124727;23;20026;-93
2023/07/05 09:11:17;;;;;;;6.75;2.35;;;;;;;;;;6123808;23;20444;-93
2023/07/05 09:14:03;;;;;;;15.65;2.55;;;;;;;;;;6124689;23;20022;-92
2023/07/05 09:16:36;;;;;;;9.50;2.38;;;;;;;;;;6124331;23;20036;-93
2023/07/05 09:19:20;;;;;;;11.25;2.47;;;;;;;;;;6124252;23;20022;-93
2023/07/05 09:22:01;;;;;;;14.38;2.42;;;;;;;;;;6124485;23;20056;-93
2023/07/05 09:24:39;;;;;;;9.25;2.00;;;;;;;;;;6124412;23;20014;-92
2023/07/05 09:27:27;;;;;;;8.57;2.50;;;;;;;;;;6123351;23;20032;-93
2023/07/05 09:30:08;;;;;;;10.98;2.63;;;;;;;;;;6124130;23;20018;-92
2023/07/05 09:32:39;;;;;;;9.25;2.25;;;;;;;;;;6123808;23;20029;-93
2023/07/05 09:35:13;;;;;;;15.98;2.78;;;;;;;;;;6123255;23;20073;-93
2023/07/05 09:37:41;;;;;;;;;;;;;;;;;;6124371;23;20022;-93
2023/07/05 09:40:19;;;;;;;8.73;2.83;;;;;;;;;;6170143;23;19921;-92
2023/07/05 09:42:56;;;;;;;9.40;2.38;;;;;;;;;;6123920;23;20018;-93
2023/07/05 09:45:29;;;;;;;9.95;2.15;;;;;;;;;;6124226;23;20018;-93
2023/07/05 09:48:04;;;;;;;11.57;2.53;;;;;;;;;;6123226;23;20049;-93
2023/07/05 09:50:39;;;;;;;9.40;2.40;;;;;;;;;;6123779;23;20020;-92
2023/07/05 09:53:13;;;;;;;9.77;2.33;;;;;;;;;;6124017;23;20080;-93
2023/07/05 09:56:03;;;;;;;9.00;2.60;;;;;;;;;;6124025;23;20021;-93
2023/07/05 09:58:34;;;;;;;7.05;2.10;;;;;;;;;;6124023;23;20368;-93
2023/07/05 10:01:12;;;;;;;12.13;2.88;;;;;;;;;;6123744;23;20014;-92
2023/07/05 10:03:44;;;;;;;6.75;2.28;;;;;;;;;;6123612;23;20045;-93
2023/07/05 10:06:33;;;;;;;11.35;3.28;;;;;;;;;;6125091;23;20132;-93
2023/07/05 10:09:04;;;;;;;8.93;2.28;;;;;;;;;;6123804;23;20022;-93
2023/07/05 10:11:42;;;;;;;5.63;2.13;;;;;;;;;;6123410;23;20026;-93
2023/07/05 10:14:14;;;;;;;4.28;2.25;;;;;;;;;;6124149;23;20100;-93
2023/07/05 10:16:48;;;;;;;6.68;2.20;;;;;;;;;;6124747;23;20061;-92
2023/07/05 10:19:26;;;;;;;8.73;2.20;;;;;;;;;;6123978;23;20014;-93
2023/07/05 10:22:18;;;;;;;9.63;2.65;;;;;;;;;;6124260;23;20018;-94
2023/07/05 10:24:47;;;;;;;8.30;2.35;;;;;;;;;;6123658;23;20029;-93
2023/07/05 10:27:27;;;;;;;8.43;2.60;;;;;;;;;;6123587;23;20030;-93
2023/07/05 10:30:14;;;;;;;8.48;2.20;;;;;;;;;;6122867;23;20020;-92
2023/07/05 10:32:52;;;;;;;11.88;2.40;;;;;;;;;;6123228;23;20025;-93
2023/07/05 10:35:23;;;;;;;6.97;2.25;;;;;;;;;;6123528;23;20028;-92
2023/07/05 10:37:57;;;;;;;6.45;1.95;;;;;;;;;;6123606;23;20026;-93
2023/07/05 10:40:25;;;;;;;7.50;2.00;;;;;;;;;;6123241;23;20022;-92
2023/07/05 10:42:59;;;;;;;7.20;2.40;;;;;;;;;;6123424;23;20018;-93
2023/07/05 10:45:34;;;;;;;5.15;2.00;;;;;;;;;;6122955;23;20065;-93
2023/07/05 10:48:13;;;;;;;7.03;2.25;;;;;;;;;;6123176;23;20014;-93
2023/07/05 10:50:41;;;;;;;13.55;2.50;;;;;;;;;;6122644;23;20466;-93
2023/07/05 10:53:16;;;;;;;10.10;2.85;;;;;;;;;;6122452;23;20029;-91
2023/07/05 10:56:12;;;;;;;6.20;2.10;;;;;;;;;;6123177;23;20029;-93
2023/07/05 10:58:55;;;;;;;8.65;2.50;;;;;;;;;;6120371;23;20022;-93
2023/07/05 11:01:26;;;;;;;11.70;2.85;;;;;;;;;;6122664;23;20029;-93
2023/07/05 11:04:01;;;;;;;8.60;2.30;;;;;;;;;;6122927;23;20029;-93
2023/07/05 11:06:36;;;;;;;7.22;2.25;;;;;;;;;;6124172;23;20030;-93
2023/07/05 11:09:10;;;;;;;3.60;1.83;;;;;;;;;;6122830;23;20022;-93
2023/07/05 11:11:55;;;;;;;5.68;2.20;;;;;;;;;;6122186;23;20545;-93
2023/07/05 11:14:30;;;;;;;8.95;2.05;;;;;;;;;;6123372;23;20452;-93
2023/07/05 11:16:59;;;;;;;6.50;2.20;;;;;;;;;;6121763;23;20030;-92
2023/07/05 11:19:28;;;;;;;12.23;2.35;;;;;;;;;;6123139;23;20414;-92
2023/07/05 11:22:03;;;;;;;5.80;2.13;;;;;;;;;;6122683;23;20028;-93
2023/07/05 11:24:31;;;;;;;6.57;2.10;;;;;;;;;;6121946;23;20025;-93
2023/07/05 11:27:24;;;;;;;6.10;2.00;;;;;;;;;;6122323;23;20033;-92
2023/07/05 11:29:54;;;;;;;8.15;2.30;;;;;;;;;;6122426;23;20025;-92
2023/07/05 11:32:42;;;;;;;8.15;2.38;;;;;;;;;;6121724;23;20021;-93
2023/07/05 11:35:09;;;;;;;7.10;2.40;;;;;;;;;;6122983;23;20029;-93
2023/07/05 11:37:44;;;;;;;8.73;2.45;;;;;;;;;;6122915;23;20476;-93
2023/07/05 11:40:38;;;;;;;5.25;2.10;;;;;;;;;;6122647;23;20025;-92
2023/07/05 11:43:26;;;;;;;8.00;2.45;;;;;;;;;;6112707;23;20022;-92
2023/07/05 11:45:53;;;;;;;9.00;2.28;;;;;;;;;;6122280;23;20022;-92
2023/07/05 11:48:41;;;;;;;5.22;2.20;;;;;;;;;;6122822;23;20026;-92
2023/07/05 11:51:20;;;;;;;7.63;2.58;;;;;;;;;;6122484;23;20068;-93
2023/07/05 11:54:05;;;;;;;7.57;2.58;;;;;;;;;;6122581;23;20026;-93
2023/07/05 11:56:41;;;;;;;11.23;2.25;;;;;;;;;;6122460;23;20076;-93
2023/07/05 11:59:17;;;;;;;8.82;2.17;;;;;;;;;;6123356;23;20031;-94
2023/07/05 12:01:44;;;;;;;8.00;2.67;;;;;;;;;;6122598;23;20089;-93
2023/07/05 12:04:11;;;;;;;;;;;;;;;;;;6123969;23;20042;-93
2023/07/05 12:06:52;;;;;;;7.05;2.45;;;;;;;;;;6192010;23;20313;-93
2023/07/05 12:09:36;;;;;;;6.20;2.45;;;;;;;;;;6152285;23;20518;-93
2023/07/05 12:12:13;;;;;;;7.47;2.60;;;;;;;;;;6151750;23;20021;-93
2023/07/05 12:14:43;;;;;;;7.32;2.42;;;;;;;;;;6152343;23;20025;-94
2023/07/05 12:17:18;;;;;;;6.68;2.78;;;;;;;;;;6153395;23;20245;-93
2023/07/05 12:19:48;;;;;;;7.63;2.65;;;;;;;;;;6153469;23;20092;-93
2023/07/05 12:22:25;;;;;;;6.07;2.40;;;;;;;;;;6153008;23;20048;-92
2023/07/05 12:24:57;;;;;;;8.38;2.50;;;;;;;;;;6155927;23;20075;-93
2023/07/05 12:27:30;;;;;;;;;;;;;;;;;;6153209;23;20025;-92
2023/07/05 12:29:59;;;;;;;6.25;2.65;;;;;;;;;;6203257;23;19920;-92
2023/07/05 12:32:27;;;;;;;7.50;2.33;;;;;;;;;;6153172;23;20072;-93
2023/07/05 12:35:12;;;;;;;4.97;2.45;;;;;;;;;;6153724;23;20021;-93
2023/07/05 12:37:39;;;;;;;7.15;2.35;;;;;;;;;;6152987;23;20024;-93
2023/07/05 12:40:22;;;;;;;11.02;2.65;;;;;;;;;;6155584;23;20371;-91
2023/07/05 12:42:52;;;;;;;8.27;2.50;;;;;;;;;;6152721;23;20029;-93
2023/07/05 12:45:28;;;;;;;9.07;2.63;;;;;;;;;;6154449;23;20465;-93
2023/07/05 12:47:56;;;;;;;7.63;2.60;;;;;;;;;;6153659;23;20020;-94
2023/07/05 12:50:24;;;;;;;6.72;2.67;;;;;;;;;;6153168;23;20017;-92
2023/07/05 12:53:02;;;;;;;9.32;2.67;;;;;;;;;;6153761;23;20467;-93
2023/07/05 12:55:31;;;;;;;6.05;2.40;;;;;;;;;;6152965;23;20017;-92
2023/07/05 12:58:06;;;;;;;9.18;2.72;;;;;;;;;;6154268;23;20337;-93
2023/07/05 13:00:34;;;;;;;7.20;2.65;;;;;;;;;;6154040;23;20017;-93
2023/07/05 13:03:14;;;;;;;6.63;2.67;;;;;;;;;;6153950;23;20076;-93
2023/07/05 13:05:42;;;;;;;9.40;2.80;;;;;;;;;;6163485;23;20025;-93
2023/07/05 13:08:24;;;;;;;10.30;3.25;;;;;;;;;;6159041;23;20079;-94
2023/07/05 13:10:51;;;;;;;8.05;2.75;;;;;;;;;;6159263;23;20092;-94
2023/07/05 13:13:25;;;;;;;9.40;3.05;;;;;;;;;;6184617;23;20029;-92
2023/07/05 13:15:53;;;;;;;9.52;3.25;;;;;;;;;;6159042;23;20354;-92
2023/07/05 13:18:33;;;;;;;7.45;2.28;;;;;;;;;;6158859;23;20480;-93
2023/07/05 13:21:10;;;;;;;6.93;3.10;;;;;;;;;;6159962;23;20040;-93
2023/07/05 13:23:45;;;;;;;9.13;2.85;;;;;;;;;;6158614;23;20025;-93
2023/07/05 13:26:32;;;;;;;9.20;3.05;;;;;;;;;;6184719;23;20017;-94
2023/07/05 13:29:00;;;;;;;7.70;2.60;;;;;;;;;;6158131;23;20021;-92
2023/07/05 13:31:34;;;;;;;6.18;2.60;;;;;;;;;;6161027;23;20017;-93
2023/07/05 13:34:04;;;;;;;7.40;2.70;;;;;;;;;;6158246;23;20362;-93
2023/07/05 13:36:31;;;;;;;6.88;2.50;;;;;;;;;;6157814;23;20084;-94
2023/07/05 13:39:05;;;;;;;7.35;2.72;;;;;;;;;;6160565;23;20090;-93
2023/07/05 13:41:33;;;;;;;11.30;3.10;;;;;;;;;;6184324;23;20525;-94
2023/07/05 13:44:11;;;;;;;9.20;2.80;;;;;;;;;;6159511;23;20017;-91
2023/07/05 13:46:38;;;;;;;9.40;2.70;;;;;;;;;;6158440;23;20533;-92
2023/07/05 13:49:13;;;;;;;11.10;3.30;;;;;;;;;;6159540;23;20017;-93
2023/07/05 13:51:45;;;;;;;9.07;3.20;;;;;;;;;;6158379;23;20025;-93
2023/07/05 13:54:19;;;;;;;11.20;3.00;;;;;;;;;;6160115;23;20025;-93
2023/07/05 13:56:47;;;;;;;9.30;3.05;;;;;;;;;;6158042;23;20394;-93
2023/07/05 13:59:16;;;;;;;11.32;3.30;;;;;;;;;;6158222;23;20022;-91
2023/07/05 14:01:50;;;;;;;12.02;3.28;;;;;;;;;;6160166;23;20075;-92
2023/07/05 14:04:17;;;;;;;8.85;3.30;;;;;;;;;;6184019;23;20084;-93
2023/07/05 14:06:58;;;;;;;11.05;3.17;;;;;;;;;;6132511;23;20026;-93
2023/07/05 14:09:25;;;;;;;8.98;3.25;;;;;;;;;;6122860;23;20518;-93
2023/07/05 14:11:59;;;;;;;13.35;3.28;;;;;;;;;;6123825;23;20026;-93
2023/07/05 14:14:27;;;;;;;10.85;3.13;;;;;;;;;;6124190;23;20030;-92
2023/07/05 14:16:54;;;;;;;10.23;2.83;;;;;;;;;;6124096;23;20022;-93
2023/07/05 14:19:28;;;;;;;7.50;3.22;;;;;;;;;;6123236;23;20025;-93
2023/07/05 14:21:55;;;;;;;9.68;3.30;;;;;;;;;;6124498;23;20034;-95
2023/07/05 14:24:29;;;;;;;11.38;3.58;;;;;;;;;;6124154;23;20030;-94
2023/07/05 14:26:58;;;;;;;7.55;2.97;;;;;;;;;;6123930;23;20064;-93
2023/07/05 14:29:25;;;;;;;6.53;3.10;;;;;;;;;;6123502;23;20025;-93
2023/07/05 14:31:59;;;;;;;6.97;3.00;;;;;;;;;;6123837;23;20018;-92
2023/07/05 14:34:27;;;;;;;8.43;3.85;;;;;;;;;;6123821;23;20625;-94
2023/07/05 14:36:55;;;;;;;9.93;3.60;;;;;;;;;;6124233;23;20018;-93
2023/07/05 14:39:28;;;;;;;9.90;3.13;;;;;;;;;;6123413;23;20026;-93
2023/07/05 14:41:56;;;;;;;9.32;3.97;;;;;;;;;;6122992;23;20014;-94
2023/07/05 14:44:30;;;;;;;8.70;3.40;;;;;;;;;;6124428;23;20335;-94
2023/07/05 14:47:02;;;;;;;11.45;3.88;;;;;;;;;;6124429;23;20455;-94
2023/07/05 14:49:40;;;;;;;9.82;3.80;;;;;;;;;;6124070;23;20026;-94
2023/07/05 14:52:09;;;;;;;12.98;4.43;;;;;;;;;;6122810;23;20029;-95
2023/07/05 14:54:36;;;;;;;12.27;4.35;;;;;;;;;;6123369;23;20026;-93
2023/07/05 14:57:11;;;;;;;11.85;4.60;;;;;;;;;;6123824;23;20092;-94
2023/07/05 14:59:38;;;;;;;11.25;3.75;;;;;;;;;;6123378;23;20022;-93
2023/07/05 15:02:17;;;;;;;9.82;3.90;;;;;;;;;;6123866;23;20018;-94
2023/07/05 15:04:44;;;;;;;13.23;4.18;;;;;;;;;;6124212;23;20018;-93
2023/07/05 15:07:41;;;;;;;12.68;4.07;;;;;;;;;;6124967;23;20056;-93
2023/07/05 15:10:15;;;;;;;10.48;3.85;;;;;;;;;;6124403;23;20100;-93
2023/07/05 15:12:49;;;;;;;7.93;4.10;;;;;;;;;;6122913;23;20025;-94
2023/07/05 15:15:25;;;;;;;9.10;4.50;;;;;;;;;;6123774;23;20022;-93